createdAt,value
2017-08-09T00:01:49.846Z,8.00
2017-08-09T00:04:18.521Z,7.57
2017-08-09T00:06:46.769Z,7.93
2017-08-09T00:09:15.163Z,7.30
2017-08-09T00:11:43.880Z,7.30
2017-08-09T00:14:12.535Z,7.80
2017-08-09T00:16:40.785Z,7.67
2017-08-09T00:19:09.081Z,7.10
2017-08-09T00:21:37.561Z,7.50
2017-08-09T00:24:05.821Z,7.47
2017-08-09T00:26:34.093Z,7.33
2017-08-09T00:29:02.332Z,7.60
2017-08-09T00:31:30.580Z,7.57
2017-08-09T00:33:58.848Z,7.50
2017-08-09T00:36:27.083Z,7.00
2017-08-09T00:38:55.539Z,8.00
2017-08-09T00:41:24.229Z,7.90
2017-08-09T00:43:52.474Z,7.20
2017-08-09T00:46:20.971Z,7.70
2017-08-09T00:48:49.432Z,7.40
2017-08-09T00:51:17.675Z,7.87
2017-08-09T00:53:45.922Z,7.57
2017-08-09T00:56:14.789Z,7.43
2017-08-09T00:58:43.025Z,7.23
2017-08-09T01:01:11.272Z,6.53
2017-08-09T01:03:39.774Z,7.37
2017-08-09T01:06:08.023Z,7.40
2017-08-09T01:08:36.259Z,7.30
2017-08-09T01:11:04.535Z,6.57
2017-08-09T01:13:32.782Z,6.60
2017-08-09T01:16:01.023Z,7.30
2017-08-09T01:18:29.300Z,7.70
2017-08-09T01:20:58.060Z,7.50
2017-08-09T01:23:26.312Z,7.80
2017-08-09T01:25:54.583Z,8.53
2017-08-09T01:28:22.883Z,7.73
2017-08-09T01:30:51.125Z,7.70
2017-08-09T01:33:19.564Z,7.27
2017-08-09T01:35:47.801Z,7.13
2017-08-09T01:38:16.041Z,7.90
2017-08-09T01:40:44.330Z,7.97
2017-08-09T01:43:12.569Z,7.93
2017-08-09T01:45:41.026Z,8.60
2017-08-09T01:48:09.316Z,7.97
2017-08-09T01:50:37.573Z,8.00
2017-08-09T01:53:05.820Z,8.07
2017-08-09T01:55:34.085Z,8.47
2017-08-09T01:58:02.344Z,8.33
2017-08-09T02:00:30.592Z,7.80
2017-08-09T02:02:59.253Z,8.73
2017-08-09T02:05:27.504Z,8.30
2017-08-09T02:07:55.756Z,7.60
2017-08-09T02:10:24.058Z,8.20
2017-08-09T02:12:52.540Z,7.40
2017-08-09T02:15:20.791Z,8.20
2017-08-09T02:17:49.073Z,7.70
2017-08-09T02:20:17.318Z,8.37
2017-08-09T02:22:45.953Z,7.50
2017-08-09T02:25:14.263Z,6.60
2017-08-09T02:27:42.520Z,7.83
2017-08-09T02:30:10.834Z,7.50
2017-08-09T02:32:39.527Z,8.00
2017-08-09T02:35:07.782Z,7.80
2017-08-09T02:37:36.207Z,8.90
2017-08-09T02:40:04.486Z,7.50
2017-08-09T02:42:32.873Z,7.27
2017-08-09T02:45:01.126Z,6.90
2017-08-09T02:47:29.374Z,7.37
2017-08-09T02:49:57.637Z,7.50
2017-08-09T02:52:25.882Z,7.47
2017-08-09T02:54:54.143Z,7.50
2017-08-09T02:57:22.395Z,7.27
2017-08-09T02:59:50.639Z,6.80
2017-08-09T03:02:18.924Z,6.83
2017-08-09T03:04:47.567Z,7.20
2017-08-09T03:07:15.809Z,6.43
2017-08-09T03:09:44.093Z,6.27
2017-08-09T03:12:12.364Z,6.20
2017-08-09T03:14:40.611Z,5.73
2017-08-09T03:17:08.906Z,7.00
2017-08-09T03:19:37.542Z,6.13
2017-08-09T03:22:05.786Z,6.80
2017-08-09T03:24:34.067Z,6.63
2017-08-09T03:27:02.335Z,6.60
2017-08-09T03:29:30.600Z,6.47
2017-08-09T03:31:58.962Z,6.10
2017-08-09T03:34:27.214Z,6.60
2017-08-09T03:36:56.554Z,6.40
2017-08-09T03:39:24.852Z,6.00
2017-08-09T03:41:53.103Z,6.90
2017-08-09T03:44:22.149Z,7.17
2017-08-09T03:46:50.464Z,6.37
2017-08-09T03:49:18.728Z,6.67
2017-08-09T03:51:47.371Z,7.30
2017-08-09T03:54:15.632Z,7.20
2017-08-09T03:56:43.876Z,7.63
2017-08-09T03:59:12.500Z,7.33
2017-08-09T04:01:40.756Z,7.50
2017-08-09T04:04:09.217Z,6.73
2017-08-09T04:06:37.448Z,6.40
2017-08-09T04:09:05.715Z,7.13
2017-08-09T04:11:33.974Z,7.33
2017-08-09T04:14:02.239Z,6.80
2017-08-09T04:16:30.730Z,6.70
2017-08-09T04:18:58.985Z,7.20
2017-08-09T04:21:27.449Z,7.13
2017-08-09T04:23:56.119Z,6.90
2017-08-09T04:26:24.576Z,7.07
2017-08-09T04:28:52.844Z,6.60
2017-08-09T04:31:21.132Z,6.77
2017-08-09T04:33:49.398Z,8.07
2017-08-09T04:36:17.652Z,6.30
2017-08-09T04:38:46.041Z,8.50
2017-08-09T04:41:14.281Z,8.43
2017-08-09T04:43:42.518Z,7.40
2017-08-09T04:46:10.786Z,7.77
2017-08-09T04:48:39.032Z,7.40
2017-08-09T04:51:07.280Z,8.47
2017-08-09T04:53:35.971Z,9.10
2017-08-09T04:56:04.233Z,6.77
2017-08-09T04:58:32.475Z,8.10
2017-08-09T05:01:00.735Z,8.00
2017-08-09T05:03:29.029Z,8.13
2017-08-09T05:05:58.055Z,8.40
2017-08-09T05:08:26.778Z,9.27
2017-08-09T05:10:55.021Z,9.00
2017-08-09T05:13:23.702Z,10.70
2017-08-09T05:15:52.012Z,10.03
2017-08-09T05:18:20.260Z,7.87
2017-08-09T05:20:48.904Z,8.50
2017-08-09T05:23:17.289Z,8.20
2017-08-09T05:25:45.552Z,9.93
2017-08-09T05:28:13.806Z,8.40
2017-08-09T05:30:42.100Z,8.60
2017-08-09T05:33:10.355Z,8.20
2017-08-09T05:35:38.632Z,8.03
2017-08-09T05:38:06.945Z,8.70
2017-08-09T05:40:35.411Z,8.40
2017-08-09T05:43:03.664Z,8.40
2017-08-09T05:45:32.569Z,9.60
2017-08-09T05:48:01.530Z,8.30
2017-08-09T05:50:29.778Z,7.60
2017-08-09T05:52:58.032Z,7.00
2017-08-09T05:55:27.793Z,9.53
2017-08-09T05:57:56.077Z,8.20
2017-08-09T06:00:24.427Z,7.80
2017-08-09T06:02:52.724Z,7.70
2017-08-09T06:05:20.991Z,7.57
2017-08-09T06:07:49.295Z,7.40
2017-08-09T06:10:17.551Z,10.77
2017-08-09T06:12:45.896Z,9.03
2017-08-09T06:15:14.228Z,7.33
2017-08-09T06:17:42.471Z,7.00
2017-08-09T06:20:11.141Z,8.23
2017-08-09T06:22:39.821Z,8.30
2017-08-09T06:25:08.080Z,7.40
2017-08-09T06:27:36.390Z,7.60
2017-08-09T06:30:05.993Z,8.30
2017-08-09T06:32:34.654Z,9.03
2017-08-09T06:35:02.914Z,7.07
2017-08-09T06:37:31.205Z,7.67
2017-08-09T06:39:59.526Z,6.70
2017-08-09T06:42:27.784Z,7.17
2017-08-09T06:44:56.212Z,6.43
2017-08-09T06:47:24.493Z,6.90
2017-08-09T06:49:52.757Z,6.20
2017-08-09T06:52:21.016Z,6.07
2017-08-09T06:54:49.308Z,5.87
2017-08-09T06:57:17.593Z,6.00
2017-08-09T06:59:45.834Z,7.00
2017-08-09T07:02:14.081Z,7.80
2017-08-09T07:04:42.765Z,5.30
2017-08-09T07:07:11.032Z,5.50
2017-08-09T07:09:39.280Z,4.93
2017-08-09T07:12:07.564Z,5.07
2017-08-09T07:14:35.808Z,5.90
2017-08-09T07:17:04.045Z,4.50
2017-08-09T07:19:32.366Z,5.30
2017-08-09T07:22:00.963Z,5.80
2017-08-09T07:24:29.911Z,5.13
2017-08-09T07:26:58.772Z,5.17
2017-08-09T07:29:27.022Z,5.07
2017-08-09T07:31:55.271Z,4.93
2017-08-09T07:34:23.768Z,4.43
2017-08-09T07:36:52.042Z,4.53
2017-08-09T07:39:20.348Z,4.10
2017-08-09T07:41:48.628Z,4.30
2017-08-09T07:44:17.769Z,3.60
2017-08-09T07:46:46.020Z,4.07
2017-08-09T07:49:14.289Z,4.20
2017-08-09T07:51:42.524Z,4.20
2017-08-09T07:54:10.760Z,4.07
2017-08-09T07:56:39.016Z,4.70
2017-08-09T07:59:07.264Z,3.53
2017-08-09T08:01:35.539Z,3.53
2017-08-09T08:04:03.781Z,3.70
2017-08-09T08:06:32.039Z,3.43
2017-08-09T08:09:00.456Z,3.70
2017-08-09T08:11:30.905Z,3.20
2017-08-09T08:13:59.405Z,3.43
2017-08-09T08:16:27.676Z,3.80
2017-08-09T08:18:56.952Z,3.53
2017-08-09T08:21:25.201Z,3.20
2017-08-09T08:23:53.459Z,3.80
2017-08-09T08:26:21.717Z,3.40
2017-08-09T08:28:49.966Z,3.70
2017-08-09T08:31:18.529Z,4.03
2017-08-09T08:33:46.765Z,4.97
2017-08-09T08:36:15.030Z,3.93
2017-08-09T08:38:43.708Z,3.93
2017-08-09T08:41:11.946Z,4.00
2017-08-09T08:43:40.207Z,4.37
2017-08-09T08:46:08.452Z,4.00
2017-08-09T08:48:36.728Z,3.17
2017-08-09T08:51:05.233Z,3.23
2017-08-09T08:53:33.825Z,3.30
2017-08-09T08:56:02.072Z,2.80
2017-08-09T08:58:30.618Z,3.43
2017-08-09T09:00:58.906Z,3.17
2017-08-09T09:03:27.664Z,2.93
2017-08-09T09:05:55.941Z,3.23
2017-08-09T09:08:24.190Z,2.77
2017-08-09T09:10:52.656Z,3.30
2017-08-09T09:13:20.930Z,2.90
2017-08-09T09:15:49.173Z,2.80
2017-08-09T09:18:17.434Z,3.00
2017-08-09T09:20:45.714Z,4.57
2017-08-09T09:23:14.177Z,3.27
2017-08-09T09:25:42.661Z,2.90
2017-08-09T09:28:10.932Z,3.37
2017-08-09T09:30:39.184Z,2.87
2017-08-09T09:33:07.412Z,2.90
2017-08-09T09:35:35.784Z,2.57
2017-08-09T09:38:04.017Z,2.83
2017-08-09T09:40:32.275Z,3.30
2017-08-09T09:43:00.784Z,2.90
2017-08-09T09:45:29.034Z,2.77
2017-08-09T09:47:57.265Z,3.40
2017-08-09T09:50:25.521Z,3.23
2017-08-09T09:52:53.782Z,3.13
2017-08-09T09:55:22.043Z,3.30
2017-08-09T09:57:50.304Z,3.07
2017-08-09T10:00:18.571Z,3.20
2017-08-09T10:02:46.843Z,3.73
2017-08-09T10:05:15.489Z,3.40
2017-08-09T10:07:43.728Z,3.57
2017-08-09T10:10:12.021Z,3.40
2017-08-09T10:12:40.304Z,4.00
2017-08-09T10:15:08.550Z,4.00
2017-08-09T10:17:37.233Z,3.60
2017-08-09T10:20:05.465Z,3.93
2017-08-09T10:22:33.752Z,3.60
2017-08-09T10:25:02.128Z,4.47
2017-08-09T10:27:30.526Z,4.17
2017-08-09T10:29:58.810Z,4.33
2017-08-09T10:32:27.478Z,3.83
2017-08-09T10:34:55.707Z,3.87
2017-08-09T10:37:23.945Z,3.50
2017-08-09T10:39:52.614Z,3.80
2017-08-09T10:42:20.880Z,3.80
2017-08-09T10:44:49.701Z,3.47
2017-08-09T10:47:18.348Z,4.30
2017-08-09T10:49:47.534Z,3.10
2017-08-09T10:52:15.821Z,3.40
2017-08-09T10:54:44.276Z,3.10
2017-08-09T10:57:13.045Z,3.13
2017-08-09T10:59:41.327Z,3.30
2017-08-09T11:02:09.589Z,3.03
2017-08-09T11:04:37.878Z,3.10
2017-08-09T11:07:06.123Z,3.10
2017-08-09T11:09:34.776Z,3.30
2017-08-09T11:12:03.154Z,3.30
2017-08-09T11:14:31.433Z,3.37
2017-08-09T11:16:59.689Z,3.10
2017-08-09T11:19:27.968Z,2.90
2017-08-09T11:21:56.211Z,3.13
2017-08-09T11:24:24.682Z,3.50
2017-08-09T11:26:52.955Z,3.40
2017-08-09T11:29:21.222Z,3.17
2017-08-09T11:31:49.857Z,3.20
2017-08-09T11:34:18.120Z,3.37
2017-08-09T11:36:46.391Z,3.03
2017-08-09T11:39:15.241Z,3.27
2017-08-09T11:41:43.513Z,3.20
2017-08-09T11:44:11.759Z,3.23
2017-08-09T11:46:40.018Z,2.97
2017-08-09T11:49:08.268Z,3.50
2017-08-09T11:51:36.617Z,3.17
2017-08-09T11:54:04.872Z,2.73
2017-08-09T11:56:33.198Z,3.30
2017-08-09T11:59:01.450Z,2.70
2017-08-09T12:01:29.700Z,3.13
2017-08-09T12:03:58.024Z,2.90
2017-08-09T12:06:26.309Z,2.90
2017-08-09T12:08:54.634Z,2.90
2017-08-09T12:11:22.914Z,2.40
2017-08-09T12:13:51.157Z,2.60
2017-08-09T12:16:19.391Z,3.47
2017-08-09T12:18:47.863Z,2.50
2017-08-09T12:21:16.102Z,2.57
2017-08-09T12:23:44.362Z,2.40
2017-08-09T12:26:12.593Z,2.73
2017-08-09T12:28:40.846Z,2.50
2017-08-09T12:31:09.123Z,2.03
2017-08-09T12:33:37.356Z,2.23
2017-08-09T12:36:05.648Z,2.50
2017-08-09T12:38:33.896Z,2.30
2017-08-09T12:41:02.157Z,2.43
2017-08-09T12:43:30.812Z,2.50
2017-08-09T12:45:59.276Z,2.33
2017-08-09T12:48:27.524Z,2.10
2017-08-09T12:50:56.180Z,2.10
2017-08-09T12:53:24.811Z,2.30
2017-08-09T12:55:53.049Z,2.00
2017-08-09T12:58:21.336Z,2.13
2017-08-09T13:00:49.597Z,2.40
2017-08-09T13:03:17.863Z,2.30
2017-08-09T13:05:46.145Z,2.00
2017-08-09T13:08:15.002Z,2.40
2017-08-09T13:10:43.470Z,1.90
2017-08-09T13:13:12.049Z,2.23
2017-08-09T13:15:40.276Z,2.10
2017-08-09T13:18:08.510Z,2.07
2017-08-09T13:20:37.074Z,1.83
2017-08-09T13:23:05.369Z,2.43
2017-08-09T13:25:34.098Z,2.30
2017-08-09T13:28:02.687Z,2.00
2017-08-09T13:30:30.954Z,1.90
2017-08-09T13:32:59.438Z,1.80
2017-08-09T13:35:28.100Z,1.97
2017-08-09T13:37:56.743Z,2.10
2017-08-09T13:40:25.057Z,1.80
2017-08-09T13:42:53.348Z,1.80
2017-08-09T13:45:21.608Z,2.30
2017-08-09T13:47:49.983Z,1.90
2017-08-09T13:50:19.098Z,2.30
2017-08-09T13:52:47.346Z,1.87
2017-08-09T13:55:15.815Z,2.00
2017-08-09T13:57:44.102Z,2.20
2017-08-09T14:00:13.149Z,2.30
2017-08-09T14:02:41.398Z,1.90
2017-08-09T14:05:09.663Z,2.03
2017-08-09T14:07:38.136Z,2.23
2017-08-09T14:10:06.389Z,1.60
2017-08-09T14:12:34.846Z,1.90
2017-08-09T14:15:03.103Z,1.93
2017-08-09T14:17:31.359Z,2.00
2017-08-09T14:19:59.663Z,1.93
2017-08-09T14:22:27.919Z,1.77
2017-08-09T14:24:57.355Z,2.13
2017-08-09T14:27:25.609Z,2.10
2017-08-09T14:29:53.879Z,2.10
2017-08-09T14:32:22.118Z,1.90
2017-08-09T14:34:50.364Z,1.90
2017-08-09T14:37:18.653Z,1.80
2017-08-09T14:39:46.907Z,2.20
2017-08-09T14:42:15.374Z,1.90
2017-08-09T14:44:44.289Z,1.70
2017-08-09T14:47:12.517Z,2.00
2017-08-09T14:49:40.795Z,2.03
2017-08-09T14:52:09.469Z,1.90
2017-08-09T14:54:37.736Z,1.70
2017-08-09T14:57:05.988Z,1.90
2017-08-09T14:59:34.449Z,1.80
2017-08-09T15:02:03.688Z,1.60
2017-08-09T15:04:31.972Z,1.80
2017-08-09T15:07:00.227Z,1.93
2017-08-09T15:09:28.525Z,1.60
2017-08-09T15:11:56.895Z,2.20
2017-08-09T15:14:25.152Z,2.07
2017-08-09T15:16:53.424Z,1.87
2017-08-09T15:19:21.735Z,1.87
2017-08-09T15:21:49.987Z,2.13
2017-08-09T15:24:18.264Z,1.90
2017-08-09T15:26:46.525Z,2.30
2017-08-09T15:29:14.787Z,1.90
2017-08-09T15:31:43.189Z,1.90
2017-08-09T15:34:11.461Z,1.97
2017-08-09T15:36:39.808Z,1.90
2017-08-09T15:39:08.074Z,1.70
2017-08-09T15:41:36.334Z,1.60
2017-08-09T15:44:05.074Z,1.53
2017-08-09T15:46:33.372Z,1.83
2017-08-09T15:49:01.625Z,1.50
2017-08-09T15:51:29.907Z,1.73
2017-08-09T15:53:58.200Z,1.50
2017-08-09T15:56:26.694Z,2.10
2017-08-09T15:58:54.965Z,1.80
2017-08-09T16:01:23.225Z,1.47
2017-08-09T16:03:52.177Z,1.43
2017-08-09T16:06:20.539Z,1.50
2017-08-09T16:08:48.800Z,1.43
2017-08-09T16:11:17.485Z,1.33
2017-08-09T16:13:45.969Z,1.40
2017-08-09T16:16:14.375Z,1.40
2017-08-09T16:18:43.457Z,1.63
2017-08-09T16:21:11.819Z,1.30
2017-08-09T16:23:40.150Z,1.40
2017-08-09T16:26:08.472Z,1.50
2017-08-09T16:28:36.785Z,1.33
2017-08-09T16:31:05.044Z,1.60
2017-08-09T16:33:33.777Z,1.60
2017-08-09T16:36:02.109Z,1.40
2017-08-09T16:38:30.389Z,1.60
2017-08-09T16:43:39.564Z,2.00
2017-08-09T16:46:07.823Z,1.70
2017-08-09T16:48:36.172Z,1.63
2017-08-09T16:51:05.213Z,1.50
2017-08-09T16:53:33.486Z,1.40
2017-08-09T16:56:01.791Z,1.50
2017-08-09T16:58:30.113Z,1.50
2017-08-09T17:00:58.371Z,1.60
2017-08-09T17:03:26.655Z,1.33
2017-08-09T17:05:55.381Z,1.47
2017-08-09T17:08:23.734Z,1.80
2017-08-09T17:10:51.989Z,1.40
2017-08-09T17:13:20.267Z,1.47
2017-08-09T17:15:48.556Z,1.20
2017-08-09T17:18:17.183Z,1.20
2017-08-09T17:20:45.473Z,1.50
2017-08-09T17:23:14.571Z,1.50
2017-08-09T17:25:42.878Z,1.60
2017-08-09T17:28:11.239Z,1.27
2017-08-09T17:30:40.071Z,1.50
2017-08-09T17:33:09.153Z,1.30
2017-08-09T17:35:37.421Z,1.40
2017-08-09T17:38:05.694Z,1.70
2017-08-09T17:40:34.154Z,1.27
2017-08-09T17:43:02.427Z,1.57
2017-08-09T17:45:30.672Z,1.70
2017-08-09T17:47:59.031Z,1.40
2017-08-09T17:50:27.557Z,1.60
2017-08-09T17:52:55.808Z,1.70
2017-08-09T17:55:24.112Z,1.50
2017-08-09T17:57:52.808Z,1.87
2017-08-09T18:00:21.088Z,1.80
2017-08-09T18:02:49.373Z,1.70
2017-08-09T18:05:17.654Z,1.40
2017-08-09T18:07:46.290Z,1.90
2017-08-09T18:10:14.572Z,1.67
2017-08-09T18:12:42.863Z,1.40
2017-08-09T18:15:11.115Z,1.73
2017-08-09T18:17:39.366Z,1.90
2017-08-09T18:20:07.720Z,1.90
2017-08-09T18:22:35.955Z,2.40
2017-08-09T18:25:04.240Z,1.80
2017-08-09T18:27:32.610Z,4.87
2017-08-09T18:30:00.855Z,3.80
2017-08-09T18:32:29.316Z,2.00
2017-08-09T18:34:57.615Z,2.70
2017-08-09T18:37:26.086Z,2.17
2017-08-09T18:39:54.331Z,2.40
2017-08-09T18:42:22.643Z,3.13
2017-08-09T18:44:50.968Z,2.40
2017-08-09T18:47:19.272Z,2.40
2017-08-09T18:49:47.574Z,2.30
2017-08-09T18:52:16.277Z,3.03
2017-08-09T18:54:44.551Z,2.80
2017-08-09T18:57:12.813Z,2.47
2017-08-09T18:59:41.055Z,2.47
2017-08-09T19:02:09.305Z,2.40
2017-08-09T19:04:37.829Z,2.80
2017-08-09T19:07:06.132Z,2.77
2017-08-09T19:09:34.399Z,2.40
2017-08-09T19:12:02.669Z,2.23
2017-08-09T19:14:31.788Z,2.30
2017-08-09T19:17:00.033Z,2.87
2017-08-09T19:19:28.354Z,2.87
2017-08-09T19:21:56.870Z,2.83
2017-08-09T19:24:25.520Z,2.60
2017-08-09T19:26:53.804Z,2.90
2017-08-09T19:29:22.036Z,3.83
2017-08-09T19:31:50.571Z,3.10
2017-08-09T19:34:18.928Z,3.23
2017-08-09T19:36:47.177Z,4.07
2017-08-09T19:39:15.427Z,3.90
2017-08-09T19:41:43.805Z,3.90
2017-08-09T19:44:12.050Z,4.03
2017-08-09T19:46:40.296Z,3.50
2017-08-09T19:49:08.596Z,3.60
2017-08-09T19:51:36.844Z,3.40
2017-08-09T19:54:05.115Z,3.13
2017-08-09T19:56:33.403Z,3.10
2017-08-09T19:59:01.869Z,3.10
2017-08-09T20:01:30.120Z,2.77
2017-08-09T20:03:58.434Z,3.37
2017-08-09T20:06:26.704Z,3.40
2017-08-09T20:08:54.948Z,3.37
2017-08-09T20:11:23.452Z,3.43
2017-08-09T20:13:51.696Z,2.60
2017-08-09T20:16:20.044Z,3.00
2017-08-09T20:18:48.329Z,3.03
2017-08-09T20:21:17.072Z,3.30
2017-08-09T20:23:45.353Z,3.23
2017-08-09T20:26:13.632Z,3.60
2017-08-09T20:28:41.919Z,3.70
2017-08-09T20:31:10.391Z,3.40
2017-08-09T20:33:38.702Z,3.50
2017-08-09T20:36:06.936Z,3.50
2017-08-09T20:38:35.244Z,3.60
2017-08-09T20:41:03.793Z,3.30
2017-08-09T20:43:32.061Z,3.40
2017-08-09T20:46:00.312Z,3.47
2017-08-09T20:48:29.104Z,3.40
2017-08-09T20:50:57.445Z,3.40
2017-08-09T20:53:25.750Z,3.93
2017-08-09T20:55:54.512Z,3.47
2017-08-09T20:58:22.901Z,3.73
2017-08-09T21:00:51.153Z,3.70
2017-08-09T21:03:20.323Z,4.17
2017-08-09T21:05:48.614Z,3.60
2017-08-09T21:08:16.988Z,3.57
2017-08-09T21:10:45.336Z,3.70
2017-08-09T21:13:13.618Z,3.80
2017-08-09T21:15:41.848Z,3.37
2017-08-09T21:18:10.124Z,2.97
2017-08-09T21:20:40.817Z,2.70
2017-08-09T21:23:11.145Z,2.93
2017-08-09T21:25:40.726Z,3.40
2017-08-09T21:28:09.757Z,3.00
2017-08-09T21:30:38.415Z,3.17
2017-08-09T21:33:06.728Z,3.77
2017-08-09T21:35:34.982Z,3.80
2017-08-09T21:38:03.432Z,3.43
2017-08-09T21:40:31.700Z,3.40
2017-08-09T21:43:01.210Z,7.90
2017-08-09T21:45:29.554Z,3.77
2017-08-09T21:47:59.122Z,3.70
2017-08-09T21:50:28.023Z,3.50
2017-08-09T21:52:56.433Z,3.70
2017-08-09T21:55:24.675Z,3.50
2017-08-09T21:57:52.935Z,3.23
2017-08-09T22:00:21.292Z,3.30
2017-08-09T22:02:49.874Z,3.90
2017-08-09T22:05:18.124Z,3.67
2017-08-09T22:07:46.637Z,3.43
2017-08-09T22:10:15.491Z,4.67
2017-08-09T22:12:43.775Z,3.80
2017-08-09T22:15:12.146Z,3.70
2017-08-09T22:17:40.382Z,3.10
2017-08-09T22:20:08.621Z,3.30
2017-08-09T22:22:37.701Z,3.60
2017-08-09T22:25:05.944Z,3.50
2017-08-09T22:27:35.143Z,3.10
2017-08-09T22:30:03.611Z,3.50
2017-08-09T22:32:31.848Z,3.77
2017-08-09T22:35:00.111Z,3.00
2017-08-09T22:37:28.989Z,3.20
2017-08-09T22:39:57.260Z,3.17
2017-08-09T22:42:25.599Z,3.30
2017-08-09T22:44:53.916Z,3.40
2017-08-09T22:47:22.171Z,3.60
2017-08-09T22:49:50.421Z,3.90
2017-08-09T22:52:22.602Z,3.40
2017-08-09T22:54:50.912Z,3.47
2017-08-09T22:57:19.195Z,3.83
2017-08-09T22:59:47.436Z,3.80
2017-08-09T23:02:17.072Z,3.50
2017-08-09T23:04:46.072Z,4.23
2017-08-09T23:07:14.325Z,3.97
2017-08-09T23:09:42.627Z,4.10
2017-08-09T23:12:11.053Z,3.43
2017-08-09T23:14:39.295Z,4.07
2017-08-09T23:17:07.537Z,3.47
2017-08-09T23:19:35.973Z,3.50
2017-08-09T23:22:04.902Z,3.50
2017-08-09T23:24:33.131Z,4.23
2017-08-09T23:27:01.408Z,4.10
2017-08-09T23:29:29.653Z,4.10
2017-08-09T23:31:58.677Z,4.10
2017-08-09T23:34:27.123Z,4.40
2017-08-09T23:36:55.380Z,4.10
2017-08-09T23:39:23.634Z,4.30
2017-08-09T23:41:51.903Z,4.50
2017-08-09T23:44:20.151Z,4.50
2017-08-09T23:46:48.789Z,4.17
2017-08-09T23:49:17.065Z,4.57
2017-08-09T23:51:45.297Z,4.60
2017-08-09T23:54:13.556Z,4.43
2017-08-09T23:56:41.985Z,4.40
2017-08-09T23:59:10.237Z,4.77
